Time;durP1;ratioP1;P1;durP2;ratioP2;P2;SDS_P1;SDS_P2;PMS_P1;PMS_P2;Temp;Humidity;BMP_temperature;BMP_pressure;BME280_temperature;BME280_humidity;BME280_pressure;Samples;Min_cycle;Max_cycle;Signal;HPM_P1;HPM_P2
2023/04/08 05:00:31;;;;;;;;;5.50;5.50;;;;;11.38;53.66;65154.53;6017025;23;44821;31
2023/04/08 05:02:57;;;;;;;;;4.00;4.00;;;;;11.12;53.54;65157.34;4898182;28;46220;-85
2023/04/08 05:05:22;;;;;;;;;5.00;5.00;;;;;11.02;53.63;65106.94;4900115;28;46235;-83
2023/04/08 05:07:47;;;;;;;;;5.33;5.00;;;;;10.40;53.33;65107.13;4898619;29;45513;-83
2023/04/08 05:10:13;;;;;;;;;5.00;4.67;;;;;10.88;53.67;65110.16;4900823;28;45446;-86
2023/04/08 05:12:38;;;;;;;;;5.00;4.33;;;;;11.32;53.56;65185.31;4900712;28;45336;-84
2023/04/08 05:15:05;;;;;;;;;6.00;4.33;;;;;11.10;53.94;65123.94;4899590;28;59309;-86
2023/04/08 05:17:30;;;;;;;;;7.33;5.00;;;;;11.24;53.46;65154.50;4900403;28;45656;-86
2023/04/08 05:19:56;;;;;;;;;7.67;6.00;;;;;11.28;54.10;65164.91;4889383;29;45548;-87
2023/04/08 05:22:21;;;;;;;;;4.00;4.00;;;;;11.21;53.59;65133.19;4895738;29;45338;-88
2023/04/08 05:24:46;;;;;;;;;7.00;5.33;;;;;11.14;53.82;65125.84;4900199;28;46324;-89
2023/04/08 05:27:12;;;;;;;;;4.00;4.00;;;;;11.13;53.63;65163.78;4900215;28;45725;-88
2023/04/08 05:29:37;;;;;;;;;4.67;4.67;;;;;10.95;53.57;65043.50;4900104;28;45653;-88
2023/04/08 05:32:02;;;;;;;;;8.33;6.00;;;;;10.98;53.91;64954.41;4915163;28;45530;-86
2023/04/08 05:34:30;;;;;;;;;7.33;6.00;;;;;11.25;53.79;64979.03;4898738;28;47247;-88
2023/04/08 05:36:55;;;;;;;;;5.67;5.33;;;;;11.11;53.50;64960.59;4901250;29;45302;-92
2023/04/08 05:39:21;;;;;;;;;10.00;8.67;;;;;11.23;53.88;64894.81;4900301;28;64183;-87
2023/04/08 05:41:46;;;;;;;;;8.33;7.00;;;;;11.16;54.16;64857.81;4899362;29;45356;-88
2023/04/08 05:44:13;;;;;;;;;8.67;6.33;;;;;11.00;54.10;64824.47;4900149;28;45816;-87
2023/04/08 05:46:38;;;;;;;;;9.00;7.67;;;;;11.19;54.29;64758.09;4899692;28;45381;-87
2023/04/08 05:49:03;;;;;;;;;10.33;9.67;;;;;11.17;53.72;64885.97;4898641;29;45315;-86
2023/04/08 05:51:29;;;;;;;;;10.00;10.00;;;;;11.19;54.01;64771.88;4900477;29;45414;-88
2023/04/08 05:53:54;;;;;;;;;8.00;7.00;;;;;11.19;54.13;64666.13;4898070;29;47484;-86
2023/04/08 05:56:20;;;;;;;;;6.67;6.67;;;;;11.13;53.93;64664.66;4896136;28;45686;-86
2023/04/08 05:58:46;;;;;;;;;9.33;8.00;;;;;11.20;54.15;64527.13;4899480;29;45446;-87
2023/04/08 06:01:11;;;;;;;;;9.67;7.00;;;;;11.21;54.24;64599.06;4920950;28;45463;-87
2023/04/08 06:03:36;;;;;;;;;8.00;8.00;;;;;11.23;54.15;64571.66;4917798;28;46231;-86
2023/04/08 06:06:02;;;;;;;;;10.00;9.00;;;;;11.23;54.15;64529.91;4900201;29;45431;-87
2023/04/08 06:08:27;;;;;;;;;7.00;6.67;;;;;10.95;54.31;64414.50;4900528;28;45531;-86
2023/04/08 06:10:53;;;;;;;;;8.00;8.00;;;;;11.25;54.52;64402.63;4896778;28;45603;-88
2023/04/08 06:13:19;;;;;;;;;8.33;7.00;;;;;11.07;54.02;64390.94;4896475;28;45490;-88
2023/04/08 06:15:50;;;;;;;;;7.00;7.00;;;;;10.93;54.34;64338.84;4892201;28;46549;-85
2023/04/08 06:18:17;;;;;;;;;8.00;8.00;;;;;11.10;54.28;64349.38;4890713;29;45900;-87
2023/04/08 06:20:42;;;;;;;;;8.00;6.67;;;;;10.75;54.38;64292.81;4895960;28;45390;-86
2023/04/08 06:23:08;;;;;;;;;8.00;8.00;;;;;11.32;53.99;64341.69;4897196;28;46062;-86
2023/04/08 06:25:33;;;;;;;;;9.00;9.00;;;;;11.20;54.14;64201.94;4898141;29;45458;-86
2023/04/08 06:27:59;;;;;;;;;8.00;7.33;;;;;11.17;54.50;64092.84;4898684;28;45437;-84
2023/04/08 06:30:24;;;;;;;;;7.67;7.67;;;;;11.26;54.52;64009.22;4898264;28;45367;-86
2023/04/08 06:32:49;;;;;;;;;6.67;6.67;;;;;11.23;54.46;63974.16;4901086;28;47370;-86
2023/04/08 06:35:15;;;;;;;;;5.00;5.00;;;;;11.36;54.61;63825.25;4900527;28;45474;-86
2023/04/08 06:37:40;;;;;;;;;7.67;7.67;;;;;11.20;54.67;63955.53;4902133;28;45367;-86
2023/04/08 06:40:06;;;;;;;;;7.33;7.00;;;;;11.43;54.82;63810.78;4898729;28;45589;-87
2023/04/08 06:42:32;;;;;;;;;7.00;5.67;;;;;11.30;54.61;63702.25;4897713;29;46288;-87
2023/04/08 06:44:58;;;;;;;;;10.00;7.00;;;;;11.39;54.57;63730.19;4899347;28;45315;-87
2023/04/08 06:47:23;;;;;;;;;10.33;9.00;;;;;11.23;54.75;63583.50;4892931;28;45954;-86
2023/04/08 06:49:48;;;;;;;;;7.33;6.33;;;;;11.56;54.42;63579.22;4897770;29;45531;-86
2023/04/08 06:52:14;;;;;;;;;8.00;8.00;;;;;11.62;54.78;63339.91;4900430;28;45511;-86
2023/04/08 06:54:40;;;;;;;;;12.00;9.00;;;;;11.66;54.85;63185.63;4901805;28;45522;-87
2023/04/08 06:57:05;;;;;;;;;7.00;5.00;;;;;10.93;54.70;62972.84;4899836;28;45330;-86
2023/04/08 06:59:31;;;;;;;;;5.00;5.00;;;;;11.31;54.38;63155.63;4899978;28;45415;-86
2023/04/08 07:01:56;;;;;;;;;7.33;7.00;;;;;11.50;54.50;63168.03;4905301;28;45465;-86
2023/04/08 07:04:22;;;;;;;;;7.67;6.00;;;;;11.90;54.34;63205.63;4902903;28;45607;-86
2023/04/08 07:06:47;;;;;;;;;5.00;5.00;;;;;11.86;54.06;63113.91;4903708;28;45516;-87
2023/04/08 07:09:12;;;;;;;;;7.00;5.00;;;;;11.91;54.03;63088.19;4902278;29;45345;-90
2023/04/08 07:11:38;;;;;;;;;3.00;3.00;;;;;12.11;53.89;63140.84;4901567;28;45446;-88
2023/04/08 07:14:06;;;;;;;;;6.67;5.00;;;;;11.08;53.74;63022.53;4901641;29;46218;-90
2023/04/08 07:16:31;;;;;;;;;8.00;5.00;;;;;11.67;53.86;62826.47;4895705;28;45633;-86
2023/04/08 07:18:57;;;;;;;;;5.00;5.00;;;;;11.86;54.03;62524.50;4913506;28;45578;-86
2023/04/08 07:21:22;;;;;;;;;5.00;5.00;;;;;11.51;54.01;62481.66;4899847;28;45977;-85
2023/04/08 07:23:50;;;;;;;;;4.33;3.67;;;;;12.42;53.87;62610.31;4901593;28;45293;-88
2023/04/08 07:26:18;;;;;;;;;6.33;5.00;;;;;12.06;53.80;62558.41;4899901;29;45440;-85
2023/04/08 07:28:47;;;;;;;;;4.00;4.00;;;;;11.78;53.66;62481.94;4883568;29;45530;-86
2023/04/08 07:31:17;;;;;;;;;7.67;6.00;;;;;12.09;53.71;62561.69;4896249;28;46395;-84
2023/04/08 07:33:44;;;;;;;;;4.67;4.33;;;;;12.63;53.85;62677.69;4896591;28;45549;-84
2023/04/08 07:36:11;;;;;;;;;5.33;4.00;;;;;12.67;53.64;62599.94;4898176;28;45465;-83
2023/04/08 07:38:37;;;;;;;;;4.33;4.33;;;;;12.73;53.51;62576.78;4901785;28;45647;-83
2023/04/08 07:41:03;;;;;;;;;6.00;5.33;;;;;12.46;53.13;62574.97;4901039;28;46081;-87
2023/04/08 07:43:30;;;;;;;;;4.33;3.33;;;;;12.82;53.29;62584.47;4900635;28;45308;-82
2023/04/08 07:46:02;;;;;;;;;2.67;2.67;;;;;12.89;53.25;62546.50;4900013;28;45712;-82
2023/04/08 07:48:27;;;;;;;;;10.00;7.67;;;;;12.93;53.05;62476.66;4899276;28;45572;-82
2023/04/08 07:50:53;;;;;;;;;7.67;5.67;;;;;12.99;53.03;62556.84;4900181;28;46174;-81
2023/04/08 07:53:18;;;;;;;;;7.00;6.67;;;;;12.64;52.99;62483.31;4899057;29;54251;-84
2023/04/08 07:55:43;;;;;;;;;7.00;7.00;;;;;12.79;52.79;62504.38;4900444;28;46210;-85
2023/04/08 07:58:09;;;;;;;;;6.67;6.67;;;;;13.13;53.04;62468.69;4901437;28;45478;-83
2023/04/08 08:00:34;;;;;;;;;6.67;6.67;;;;;12.97;52.87;62483.66;4900268;28;45471;-82
2023/04/08 08:03:00;;;;;;;;;6.00;6.00;;;;;13.22;52.74;62379.84;4897592;28;45550;-82
2023/04/08 08:05:25;;;;;;;;;7.67;5.33;;;;;13.27;52.59;62420.31;4897265;28;46242;-85
2023/04/08 08:07:50;;;;;;;;;3.67;3.67;;;;;13.09;52.89;62313.28;4899648;28;45647;-83
2023/04/08 08:10:16;;;;;;;;;4.67;4.67;;;;;13.37;52.76;62382.91;4900220;29;58574;-84
2023/04/08 08:12:41;;;;;;;;;10.00;7.50;;;;;13.37;52.22;62531.38;4901627;28;45434;-83
2023/04/08 08:15:07;;;;;;;;;14.00;12.33;;;;;13.43;52.03;62659.91;4897151;28;45541;-83
2023/04/08 08:17:32;;;;;;;;;8.00;6.67;;;;;13.33;52.19;62677.63;4900764;29;45845;-87
2023/04/08 08:19:59;;;;;;;;;5.67;5.33;;;;;13.50;52.09;62595.91;4892080;29;47118;-86
2023/04/08 08:22:25;;;;;;;;;6.33;6.33;;;;;13.56;52.08;62550.97;4899986;28;45604;-85
2023/04/08 08:24:58;;;;;;;;;6.67;5.67;;;;;13.63;52.24;62455.13;4900751;28;45318;-86
2023/04/08 08:27:23;;;;;;;;;6.33;6.33;;;;;13.68;51.90;62510.94;4901447;28;45478;-92
2023/04/08 08:29:49;;;;;;;;;7.00;7.00;;;;;13.73;51.85;62532.31;4899085;28;46980;-83
2023/04/08 08:32:14;;;;;;;;;6.00;5.33;;;;;13.78;51.62;62381.19;4897662;28;45561;-83
2023/04/08 08:34:40;;;;;;;;;8.00;5.33;;;;;13.66;51.83;62336.88;4899461;28;45540;-84
2023/04/08 08:37:05;;;;;;;;;8.00;7.00;;;;;13.91;51.90;62336.38;4901390;28;45448;-85
2023/04/08 08:39:30;;;;;;;;;5.33;5.33;;;;;13.96;51.66;62365.66;4893151;28;45452;-89
2023/04/08 08:42:37;;;;;;;;;7.33;6.33;;;;;14.03;51.81;62264.41;4901177;28;45395;-88
2023/04/08 08:45:03;;;;;;;;;11.67;8.00;;;;;13.20;51.37;62367.59;4918786;28;45375;-82
2023/04/08 08:47:29;;;;;;;;;8.33;5.00;;;;;14.01;51.46;62338.69;4900546;28;45456;-76
2023/04/08 08:49:55;;;;;;;;;4.00;4.00;;;;;14.22;51.26;62206.91;4897258;28;45492;-76
2023/04/08 08:52:20;;;;;;;;;5.33;5.33;;;;;14.27;51.40;62148.59;4900048;28;45590;-77
2023/04/08 08:54:46;;;;;;;;;8.00;5.33;;;;;14.19;51.19;62329.00;4890451;28;50460;-76
2023/04/08 08:57:18;;;;;;;;;5.33;4.33;;;;;14.39;51.16;62304.97;4899143;28;45724;-78
2023/04/08 08:59:47;;;;;;;;;9.00;9.00;;;;;14.40;51.01;62210.44;4898104;29;46181;-74
2023/04/08 09:02:24;;;;;;;;;8.33;5.33;;;;;14.49;50.91;62297.22;4908162;28;45338;-76
2023/04/08 09:04:57;;;;;;;;;3.33;3.33;;;;;14.38;51.14;62213.06;4900676;28;45397;-76
2023/04/08 09:07:25;;;;;;;;;6.67;6.67;;;;;14.50;50.99;62170.78;4900372;28;45791;-76
2023/04/08 09:09:51;;;;;;;;;5.67;5.67;;;;;14.69;50.72;62105.22;4898819;28;46372;-77
2023/04/08 09:12:19;;;;;;;;;5.33;5.33;;;;;14.74;50.80;62089.91;4900124;28;45709;-76
2023/04/08 09:14:45;;;;;;;;;5.33;5.00;;;;;14.52;50.82;61999.75;4898628;28;45421;-76
2023/04/08 09:17:10;;;;;;;;;11.00;8.00;;;;;14.89;50.66;62052.41;4890076;29;45657;-76
2023/04/08 09:19:36;;;;;;;;;6.33;4.33;;;;;14.95;50.35;62093.41;4898361;28;46093;-76
2023/04/08 09:22:06;;;;;;;;;5.67;4.00;;;;;14.98;50.39;61915.34;4898328;28;45458;-77
2023/04/08 09:24:31;;;;;;;;;5.00;5.00;;;;;15.12;50.26;61961.78;4899750;28;45247;-76
2023/04/08 09:26:57;;;;;;;;;5.00;5.00;;;;;15.20;50.25;61859.25;4900304;28;45233;-77
2023/04/08 09:29:24;;;;;;;;;6.00;4.33;;;;;15.25;50.30;61706.66;4899688;28;45399;-77
2023/04/08 09:31:57;;;;;;;;;7.67;4.00;;;;;15.40;50.25;61784.47;4894545;28;45714;-77
2023/04/08 09:34:24;;;;;;;;;4.00;4.00;;;;;15.52;50.05;61666.44;4899216;28;45290;-77
2023/04/08 09:36:50;;;;;;;;;3.67;3.67;;;;;15.65;50.17;61556.91;4895524;29;45641;-77
2023/04/08 09:39:16;;;;;;;;;4.00;4.00;;;;;15.80;49.93;61442.56;4898821;28;47181;-77
2023/04/08 09:41:42;;;;;;;;;4.67;4.67;;;;;15.66;49.76;61310.53;4899855;29;45711;-77
2023/04/08 09:44:11;;;;;;;;;5.67;4.67;;;;;16.27;49.10;61206.69;4900197;28;45350;-77
2023/04/08 09:46:48;;;;;;;;;7.33;6.33;;;;;16.59;48.86;61146.94;4900210;28;45452;-77
2023/04/08 09:49:58;;;;;;;;;4.67;3.33;;;;;16.61;48.95;60389.19;4897601;29;46371;-80
2023/04/08 09:52:32;;;;;;;;;7.67;4.33;;;;;17.62;48.18;60277.00;4881579;29;45542;-76
2023/04/08 09:55:07;;;;;;;;;7.67;5.67;;;;;18.27;47.11;59621.88;4899084;29;45417;-77
2023/04/08 09:57:51;;;;;;;;;8.00;5.67;;;;;19.12;46.81;59350.03;4897534;28;45541;-76
2023/04/08 10:00:17;;;;;;;;;3.67;3.67;;;;;19.88;45.26;60593.84;4881205;28;46827;-76
2023/04/08 10:03:01;;;;;;;;;8.00;8.00;;;;;20.73;42.35;62354.38;4905657;28;45388;-77
2023/04/08 10:05:29;;;;;;;;;4.00;4.00;;;;;21.29;42.91;62081.28;4895807;29;45523;-76
2023/04/08 10:07:57;;;;;;;;;3.67;3.67;;;;;22.08;42.60;62266.19;4899296;29;46167;-78
2023/04/08 10:10:24;;;;;;;;;4.00;4.00;;;;;22.62;40.40;64597.31;4895346;29;45576;-77
2023/04/08 10:12:50;;;;;;;;;4.00;4.00;;;;;23.23;40.26;65213.50;4894810;28;45485;-77
2023/04/08 10:15:30;;;;;;;;;3.67;3.67;;;;;23.86;39.38;65522.84;4897864;29;45371;-78
2023/04/08 10:18:01;;;;;;;;;3.67;2.67;;;;;24.32;36.71;67064.59;4898983;28;45680;-80
2023/04/08 10:20:33;;;;;;;;;4.00;3.00;;;;;24.66;36.94;67586.00;4893855;29;46510;-89
2023/04/08 10:22:59;;;;;;;;;5.00;3.00;;;;;24.66;37.10;68016.41;4899970;29;45370;-87
2023/04/08 10:25:31;;;;;;;;;3.67;3.33;;;;;24.92;37.03;68140.31;4899241;29;45447;-85
2023/04/08 10:27:58;;;;;;;;;4.00;4.00;;;;;25.23;36.01;68466.19;4898543;28;45664;-93
2023/04/08 10:30:26;;;;;;;;;3.67;3.67;;;;;25.56;35.76;68616.97;4893160;28;46159;-87
2023/04/08 10:32:55;;;;;;;;;3.33;3.33;;;;;25.80;35.24;68945.34;4897661;29;45495;-87
2023/04/08 10:37:45;;;;;;;;;4.00;4.00;;;;;26.53;33.50;69375.09;4943191;23;58121;-84
2023/04/08 10:40:37;;;;;;;;;5.00;3.00;;;;;26.79;31.85;69518.84;4942706;28;46070;-84
2023/04/08 10:43:04;;;;;;;;;8.67;7.00;;;;;26.86;30.72;69602.59;4936318;28;45500;-87
2023/04/08 10:45:29;;;;;;;;;4.00;2.67;;;;;27.15;32.37;69652.88;4936713;28;45490;-86
2023/04/08 10:47:55;;;;;;;;;2.33;2.33;;;;;27.45;32.44;69684.81;4934603;28;45940;-87
2023/04/08 10:50:22;;;;;;;;;4.00;3.00;;;;;27.67;32.71;69756.69;4941279;28;45795;-84
2023/04/08 10:52:54;;;;;;;;;6.00;4.00;;;;;27.84;31.32;69760.72;4940702;28;45335;-83
2023/04/08 10:55:26;;;;;;;;;3.00;3.00;;;;;27.94;30.25;69783.53;4938855;28;45455;-85
2023/04/08 10:57:52;;;;;;;;;3.00;3.00;;;;;28.06;31.53;69816.31;4932563;28;45699;-84
2023/04/08 11:00:31;;;;;;;;;3.67;3.67;;;;;27.96;31.36;69824.00;4932430;28;45529;-84
2023/04/08 11:03:07;;;;;;;;;0.00;0.00;;;;;28.30;30.42;69819.94;4935860;28;45553;-96
2023/04/08 11:05:38;;;;;;;;;2.00;2.00;;;;;27.90;30.51;69753.69;4941693;28;45444;-94
2023/04/08 11:08:05;;;;;;;;;3.00;3.00;;;;;28.05;30.18;69751.97;4937876;28;45646;-88
2023/04/08 11:10:36;;;;;;;;;2.00;2.00;;;;;27.54;30.99;69798.81;4936735;28;46321;-92
2023/04/08 11:13:13;;;;;;;;;5.00;5.00;;;;;27.91;27.52;69562.47;4934315;28;45649;-86
2023/04/08 11:15:41;;;;;;;;;2.33;1.33;;;;;28.13;29.97;69794.78;4934512;28;45480;-95
2023/04/08 11:18:07;;;;;;;;;2.00;1.00;;;;;28.06;29.45;69761.94;4939109;28;45578;-87
2023/04/08 11:20:37;;;;;;;;;2.00;2.00;;;;;28.70;29.54;69833.91;4938643;28;46246;-90
2023/04/08 11:23:03;;;;;;;;;2.33;2.33;;;;;28.38;28.85;69745.16;4938838;28;45608;-89
2023/04/08 11:25:29;;;;;;;;;1.33;1.33;;;;;27.73;29.24;69636.13;4938759;28;45454;-91
2023/04/08 11:27:55;;;;;;;;;2.00;2.00;;;;;27.84;29.07;69624.19;4938082;28;45666;-85
2023/04/08 11:30:22;;;;;;;;;2.00;2.00;;;;;28.59;29.72;69877.94;4938183;28;46184;-86
2023/04/08 11:32:48;;;;;;;;;2.67;2.67;;;;;29.05;29.59;69839.75;4934791;28;45506;-84
2023/04/08 11:35:15;;;;;;;;;1.00;1.00;;;;;28.70;29.46;69749.53;4938257;28;45473;-85
2023/04/08 11:37:41;;;;;;;;;2.00;2.00;;;;;29.31;28.63;69785.19;4939195;28;45503;-85
2023/04/08 11:40:10;;;;;;;;;4.33;2.33;;;;;29.34;28.08;69750.03;4937919;28;46092;-90
2023/04/08 11:42:37;;;;;;;;;3.33;1.67;;;;;29.38;28.37;69752.66;4937324;28;45525;-91
2023/04/08 11:45:10;;;;;;;;;2.33;2.00;;;;;29.40;27.88;69776.84;4951265;23;45323;-90
2023/04/08 11:47:36;;;;;;;;;3.33;2.33;;;;;29.29;27.71;69652.03;4918393;28;45765;-90
2023/04/08 11:50:02;;;;;;;;;4.00;4.00;;;;;29.47;27.32;69670.16;4916799;28;45486;-93
2023/04/08 11:52:48;;;;;;;;;4.00;2.00;;;;;29.09;27.29;69644.53;4920064;28;45525;-93
2023/04/08 11:55:25;;;;;;;;;3.00;3.00;;;;;29.40;26.61;69612.75;4916700;28;45530;-94
2023/04/08 11:57:51;;;;;;;;;4.00;4.00;;;;;29.44;27.33;69664.44;4913777;28;45504;-94
2023/04/08 12:00:17;;;;;;;;;5.00;3.00;;;;;29.54;27.70;69643.06;4924360;28;46197;-94
2023/04/08 12:02:42;;;;;;;;;1.67;1.67;;;;;29.59;28.03;69659.31;4923006;28;45300;-94
2023/04/08 12:05:08;;;;;;;;;2.67;2.00;;;;;29.62;28.32;69690.19;4919205;28;45407;-92
2023/04/08 12:07:33;;;;;;;;;3.00;2.00;;;;;29.76;27.96;69695.38;4920921;28;45320;-93
2023/04/08 12:09:58;;;;;;;;;2.25;2.00;;;;;29.86;27.82;69696.97;4917707;28;45521;-94
2023/04/08 12:12:24;;;;;;;;;3.67;3.67;;;;;29.95;27.99;69688.03;4920088;28;45957;-95
2023/04/08 12:14:49;;;;;;;;;2.00;2.00;;;;;29.81;27.21;69657.72;4921170;28;45568;-94
2023/04/08 12:17:15;;;;;;;;;2.33;2.00;;;;;29.97;27.12;69649.50;4905171;28;45345;-94
2023/04/08 12:19:40;;;;;;;;;2.67;2.67;;;;;29.91;27.70;69644.47;4921824;28;46611;-95
2023/04/08 12:22:05;;;;;;;;;3.00;2.00;;;;;30.16;27.12;69610.91;4904573;28;45457;-96
2023/04/08 12:24:31;;;;;;;;;3.67;3.67;;;;;30.29;27.48;69632.44;4920396;28;45436;-87
2023/04/08 12:26:57;;;;;;;;;2.00;2.00;;;;;30.43;27.04;69563.91;4917575;28;45427;-88
2023/04/08 12:29:22;;;;;;;;;2.33;2.33;;;;;30.48;27.22;69585.63;4916680;28;48948;-88
2023/04/08 12:31:47;;;;;;;;;1.67;1.67;;;;;30.65;26.39;69520.66;4919705;28;45442;-88
2023/04/08 12:34:13;;;;;;;;;2.00;2.00;;;;;30.86;26.40;69466.41;4903000;28;45507;-89
2023/04/08 12:36:38;;;;;;;;;2.33;2.33;;;;;31.00;26.44;69531.00;4918554;28;46065;-89
2023/04/08 12:39:03;;;;;;;;;2.67;1.67;;;;;30.90;26.60;69512.13;4915478;28;47901;-90
2023/04/08 12:41:29;;;;;;;;;3.33;3.33;;;;;30.99;25.85;69494.31;4931330;28;45277;-89
2023/04/08 12:43:55;;;;;;;;;4.00;3.00;;;;;31.49;25.11;69353.56;4926214;28;45335;-89
2023/04/08 12:46:20;;;;;;;;;2.00;2.00;;;;;31.62;25.36;69392.38;4934662;28;45347;-89
2023/04/08 12:48:47;;;;;;;;;2.00;2.00;;;;;31.75;24.69;69413.25;4938238;28;47135;-90
2023/04/08 12:51:12;;;;;;;;;4.00;3.00;;;;;31.89;24.88;69391.56;4919318;28;45615;-89
2023/04/08 12:53:37;;;;;;;;;1.00;1.00;;;;;31.83;25.03;69324.25;4920625;28;45475;-91
2023/04/08 12:56:03;;;;;;;;;2.33;2.33;;;;;32.08;23.91;69289.78;4903578;28;45594;-90
2023/04/08 12:58:31;;;;;;;;;3.33;3.33;;;;;32.16;24.95;69327.19;4919294;28;48843;-88
2023/04/08 13:00:56;;;;;;;;;3.33;3.33;;;;;32.02;24.18;69269.00;4923708;28;46017;-87
2023/04/08 13:03:22;;;;;;;;;2.00;2.00;;;;;32.20;24.13;69257.44;4929428;28;45494;-87
2023/04/08 13:05:47;;;;;;;;;1.33;1.33;;;;;31.67;23.96;69141.25;4920229;28;45390;-87
2023/04/08 13:08:13;;;;;;;;;2.00;2.00;;;;;32.22;24.57;69212.69;4919446;28;46237;-86
2023/04/08 13:10:38;;;;;;;;;1.00;1.00;;;;;32.22;24.27;69251.00;4919659;28;45445;-86
2023/04/08 13:13:04;;;;;;;;;4.00;2.00;;;;;32.20;24.33;69251.38;4886127;28;45499;-87
2023/04/08 13:15:29;;;;;;;;;2.00;2.00;;;;;32.12;23.28;69218.47;4913218;28;46338;-86
2023/04/08 13:17:54;;;;;;;;;2.00;2.00;;;;;31.77;23.83;69257.00;4917683;28;45440;-86
2023/04/08 13:20:23;;;;;;;;;2.00;2.00;;;;;31.68;23.92;69254.53;4919331;28;45493;-86
2023/04/08 13:22:49;;;;;;;;;2.67;1.67;;;;;31.59;23.74;69252.72;4918204;28;45466;-91
2023/04/08 13:25:15;;;;;;;;;2.00;2.00;;;;;31.24;23.77;69272.00;4901869;28;45513;-92
2023/04/08 13:27:40;;;;;;;;;1.67;1.00;;;;;31.28;23.68;69252.72;4903340;28;47510;-91
2023/04/08 13:30:06;;;;;;;;;3.00;2.00;;;;;31.01;23.59;69240.50;4921283;28;45466;-90
2023/04/08 13:32:31;;;;;;;;;2.00;2.00;;;;;31.10;24.20;69307.94;4919119;28;45322;-90
2023/04/08 13:34:56;;;;;;;;;2.00;2.00;;;;;30.90;24.38;69277.22;4916409;28;45516;-90
2023/04/08 13:37:22;;;;;;;;;3.00;3.00;;;;;30.68;23.74;69308.50;4917978;28;46260;-92
2023/04/08 13:39:47;;;;;;;;;2.00;2.00;;;;;30.43;24.31;69399.56;4917409;28;46282;-92
2023/04/08 13:42:12;;;;;;;;;2.00;2.00;;;;;30.16;23.73;69409.03;4918435;28;45376;-92
2023/04/08 13:44:38;;;;;;;;;2.33;1.00;;;;;29.81;24.68;69342.00;4918389;28;45494;-93
2023/04/08 13:47:03;;;;;;;;;2.00;1.67;;;;;29.38;24.75;69395.72;4898701;28;45953;-92
2023/04/08 13:49:28;;;;;;;;;2.67;2.00;;;;;29.24;25.12;69436.28;4901498;28;45693;-93
2023/04/08 13:51:54;;;;;;;;;2.00;2.00;;;;;28.95;25.19;69418.75;4916651;28;45452;-92
2023/04/08 13:54:19;;;;;;;;;2.33;2.00;;;;;28.66;25.28;69423.59;4918231;28;45589;-93
2023/04/08 13:56:45;;;;;;;;;1.33;1.33;;;;;28.30;25.71;69460.84;4918195;28;45492;-95
2023/04/08 13:59:10;;;;;;;;;2.00;2.00;;;;;27.96;25.66;69413.47;4912378;28;45345;-95
2023/04/08 14:01:35;;;;;;;;;2.00;2.00;;;;;27.45;25.75;69364.84;4914152;28;45403;-95
2023/04/08 14:04:01;;;;;;;;;2.33;2.33;;;;;27.58;26.38;69442.19;4914186;28;46451;-94
2023/04/08 14:06:26;;;;;;;;;3.67;3.67;;;;;27.09;26.07;69456.28;4917547;28;47055;-93
2023/04/08 14:08:52;;;;;;;;;4.33;3.67;;;;;26.94;26.46;69449.84;4917522;28;45405;-96
2023/04/08 14:11:17;;;;;;;;;2.00;2.00;;;;;26.73;26.63;69433.00;4919379;28;47166;-91
2023/04/08 14:13:42;;;;;;;;;3.33;3.33;;;;;26.20;26.71;69392.75;4921279;28;45464;-93
2023/04/08 14:16:08;;;;;;;;;2.00;2.00;;;;;26.46;27.03;69564.78;4924049;28;45421;-95
2023/04/08 14:18:33;;;;;;;;;2.00;2.00;;;;;26.08;27.42;69409.50;4927763;28;45538;-95
2023/04/08 14:20:58;;;;;;;;;2.00;2.00;;;;;25.84;27.25;69392.31;4923227;28;46152;-93
2023/04/08 14:23:24;;;;;;;;;3.00;3.00;;;;;25.57;27.02;69520.59;4918037;28;45831;-95
2023/04/08 14:25:49;;;;;;;;;1.67;0.67;;;;;25.30;27.75;69464.00;4913977;28;48330;-95
2023/04/08 14:28:14;;;;;;;;;3.67;1.33;;;;;25.22;27.65;69371.75;4912022;28;46219;-93
2023/04/08 14:30:40;;;;;;;;;0.33;0.33;;;;;25.26;28.15;69356.94;4918086;28;45540;-94
2023/04/08 14:33:05;;;;;;;;;4.33;1.33;;;;;25.10;27.77;69368.25;4919909;28;45568;-93
2023/04/08 14:35:31;;;;;;;;;2.00;2.00;;;;;24.90;28.10;69325.50;4924397;28;46979;-95
2023/04/08 14:37:56;;;;;;;;;2.00;2.00;;;;;25.06;28.45;69374.91;4922367;28;45495;-95
2023/04/08 14:40:22;;;;;;;;;1.67;1.67;;;;;25.01;28.41;69379.78;4916379;28;45448;-95
2023/04/08 14:42:48;;;;;;;;;3.00;2.00;;;;;24.70;28.57;69402.97;4919173;28;45344;-94
2023/04/08 14:45:14;;;;;;;;;3.00;1.00;;;;;24.77;28.44;69524.28;4931629;28;48022;-95
2023/04/08 14:47:40;;;;;;;;;1.33;1.33;;;;;24.85;28.71;69409.41;4925546;28;45374;-95
2023/04/08 14:50:06;;;;;;;;;4.00;2.00;;;;;24.70;29.09;69383.41;4915479;28;45394;-93
2023/04/08 14:52:31;;;;;;;;;2.33;1.00;;;;;24.71;28.49;69409.56;4910678;28;45452;-96
2023/04/08 14:54:57;;;;;;;;;2.00;2.00;;;;;24.16;29.16;69229.56;4924897;28;48648;-95
2023/04/08 14:57:22;;;;;;;;;2.00;2.00;;;;;24.09;28.87;69361.75;4901273;28;45455;-94
2023/04/08 14:59:47;;;;;;;;;1.67;1.33;;;;;23.91;28.97;69307.88;4924590;28;45502;-95
2023/04/08 15:02:13;;;;;;;;;1.00;1.00;;;;;24.23;29.01;69332.50;4929220;28;45533;-94
2023/04/08 15:04:38;;;;;;;;;1.00;1.00;;;;;23.92;29.38;69312.34;4919823;28;49271;-94
2023/04/08 15:07:03;;;;;;;;;3.67;2.00;;;;;24.05;29.87;69338.06;4907473;28;45844;-92
2023/04/08 15:09:29;;;;;;;;;1.00;1.00;;;;;23.71;29.85;69319.72;4929817;28;45687;-92
2023/04/08 15:11:55;;;;;;;;;1.00;1.00;;;;;23.98;29.42;69400.56;4922712;28;45385;-92
2023/04/08 15:14:20;;;;;;;;;0.67;0.33;;;;;23.44;30.06;69406.94;4905251;28;48385;-91
2023/04/08 15:16:45;;;;;;;;;2.00;1.00;;;;;23.86;29.65;69375.44;4922308;28;45436;-93
2023/04/08 15:19:11;;;;;;;;;2.00;2.00;;;;;23.73;29.90;69317.31;4925453;28;45501;-93
2023/04/08 15:21:36;;;;;;;;;4.00;4.00;;;;;23.75;30.48;69346.13;4935267;28;45489;-91
2023/04/08 15:24:02;;;;;;;;;1.00;1.00;;;;;23.63;30.27;69277.81;4920848;28;45439;-87
2023/04/08 15:26:27;;;;;;;;;1.00;1.00;;;;;23.11;30.42;69322.91;4920933;28;45408;-87
2023/04/08 15:28:54;;;;;;;;;3.67;2.00;;;;;23.56;30.63;69330.03;4923483;28;45380;-90
2023/04/08 15:31:20;;;;;;;;;1.00;1.00;;;;;23.52;30.46;69319.88;4929315;28;45607;-89
2023/04/08 15:33:45;;;;;;;;;2.00;2.00;;;;;23.47;30.66;69394.31;4913597;28;48008;-88
2023/04/08 15:36:11;;;;;;;;;3.00;3.00;;;;;22.80;30.28;69278.41;4919780;28;45316;-87
2023/04/08 15:38:36;;;;;;;;;4.00;2.67;;;;;23.22;30.73;69257.16;4919804;28;45509;-85
2023/04/08 15:41:02;;;;;;;;;1.00;1.00;;;;;23.22;31.09;69354.88;4919943;28;45410;-85
2023/04/08 15:43:27;;;;;;;;;5.00;3.00;;;;;22.62;30.75;69230.63;4919660;28;47219;-85
2023/04/08 15:45:52;;;;;;;;;3.33;3.33;;;;;23.09;30.68;69299.50;4917949;28;45358;-86
2023/04/08 15:48:18;;;;;;;;;3.00;1.67;;;;;22.93;31.28;69283.72;4916587;28;45685;-86
2023/04/08 15:50:43;;;;;;;;;2.67;2.67;;;;;22.95;31.31;69288.19;4909543;28;46684;-86
2023/04/08 15:53:09;;;;;;;;;1.33;1.00;;;;;22.34;31.70;69325.69;4918431;28;45667;-86
2023/04/08 15:55:38;;;;;;;;;3.00;3.00;;;;;22.77;31.85;69308.38;4918344;28;45591;-87
2023/04/08 15:58:04;;;;;;;;;4.00;2.00;;;;;22.55;31.85;69301.03;4918751;28;45585;-88
2023/04/08 16:00:30;;;;;;;;;3.67;2.67;;;;;22.38;31.84;69246.31;4921794;28;45689;-87
2023/04/08 16:02:55;;;;;;;;;3.00;1.00;;;;;22.39;31.96;69219.97;4909638;28;46198;-89
2023/04/08 16:05:21;;;;;;;;;2.00;2.00;;;;;22.08;31.86;69192.31;4916410;28;45527;-87
2023/04/08 16:07:46;;;;;;;;;2.00;2.00;;;;;21.89;31.95;69135.88;4915058;28;45457;-88
2023/04/08 16:10:11;;;;;;;;;3.67;3.00;;;;;21.98;31.89;69286.00;4917366;28;45440;-88
2023/04/08 16:12:37;;;;;;;;;2.67;2.67;;;;;22.16;32.21;69255.09;4918054;28;46087;-88
2023/04/08 16:15:03;;;;;;;;;2.00;2.00;;;;;22.14;32.70;69264.69;4927278;28;45513;-87
2023/04/08 16:17:28;;;;;;;;;2.00;2.00;;;;;21.76;32.24;69220.00;4919013;28;45569;-89
2023/04/08 16:19:53;;;;;;;;;3.33;3.33;;;;;21.98;32.66;69363.50;4919286;28;45326;-87
2023/04/08 16:22:19;;;;;;;;;3.00;2.00;;;;;21.44;32.31;69180.34;4911658;28;46078;-92
2023/04/08 16:24:44;;;;;;;;;3.67;2.00;;;;;21.20;32.70;69120.06;4917762;28;45610;-92
2023/04/08 16:27:09;;;;;;;;;2.67;1.67;;;;;21.69;33.06;69173.97;4922688;28;45463;-91
2023/04/08 16:29:35;;;;;;;;;3.00;3.00;;;;;21.19;33.10;69083.31;4914496;28;45578;-94
2023/04/08 16:32:00;;;;;;;;;3.00;3.00;;;;;21.65;32.87;69237.06;4903926;28;48711;-91
2023/04/08 16:34:27;;;;;;;;;4.67;3.33;;;;;20.80;32.88;69256.41;4913114;28;45707;-92